createdAt,value
2018-03-26T00:01:33.491Z,65.79
2018-03-26T00:04:02.619Z,65.86
2018-03-26T00:06:28.504Z,65.65
2018-03-26T00:08:54.381Z,65.92
2018-03-26T00:11:20.267Z,66.12
2018-03-26T00:13:46.175Z,66.02
2018-03-26T00:16:13.528Z,65.78
2018-03-26T00:18:39.406Z,65.49
2018-03-26T00:21:08.734Z,65.65
2018-03-26T00:23:34.620Z,65.08
2018-03-26T00:26:04.335Z,64.64
2018-03-26T00:28:30.258Z,64.33
2018-03-26T00:30:57.808Z,64.74
2018-03-26T00:33:23.670Z,65.52
2018-03-26T00:35:53.427Z,65.77
2018-03-26T00:38:19.340Z,66.35
2018-03-26T00:40:48.660Z,66.07
2018-03-26T00:43:14.554Z,66.31
2018-03-26T00:45:40.422Z,66.24
2018-03-26T00:48:06.351Z,66.18
2018-03-26T00:50:32.214Z,66.32
2018-03-26T00:52:59.363Z,66.78
2018-03-26T00:55:25.252Z,66.57
2018-03-26T00:57:53.296Z,66.50
2018-03-26T01:00:19.157Z,66.60
2018-03-26T01:02:48.097Z,66.73
2018-03-26T01:05:13.966Z,67.27
2018-03-26T01:07:42.902Z,67.15
2018-03-26T01:10:08.833Z,67.18
2018-03-26T01:12:38.431Z,67.23
2018-03-26T01:15:04.325Z,67.24
2018-03-26T01:17:34.098Z,67.39
2018-03-26T01:19:59.983Z,67.39
2018-03-26T01:22:25.863Z,67.78
2018-03-26T01:24:51.791Z,67.69
2018-03-26T01:27:17.682Z,67.45
2018-03-26T01:29:44.204Z,67.58
2018-03-26T01:32:10.064Z,67.65
2018-03-26T01:34:39.228Z,67.09
2018-03-26T01:37:05.106Z,67.28
2018-03-26T01:39:34.880Z,68.10
2018-03-26T01:42:00.780Z,68.25
2018-03-26T01:44:28.086Z,68.09
2018-03-26T01:46:53.996Z,69.12
2018-03-26T01:49:22.870Z,69.02
2018-03-26T01:51:48.754Z,69.42
2018-03-26T01:54:17.865Z,70.03
2018-03-26T01:56:43.749Z,69.59
2018-03-26T01:59:09.697Z,69.21
2018-03-26T02:01:35.595Z,69.52
2018-03-26T02:04:01.465Z,69.50
2018-03-26T02:06:29.147Z,69.30
2018-03-26T02:08:55.057Z,68.94
2018-03-26T02:11:24.299Z,68.95
2018-03-26T02:13:50.200Z,68.90
2018-03-26T02:16:19.804Z,68.68
2018-03-26T02:18:46.055Z,69.79
2018-03-26T02:21:15.096Z,70.21
2018-03-26T02:23:41.002Z,69.70
2018-03-26T02:26:08.517Z,69.48
2018-03-26T02:28:34.432Z,69.55
2018-03-26T02:31:03.281Z,69.08
2018-03-26T02:33:29.154Z,68.89
2018-03-26T02:35:55.043Z,68.41
2018-03-26T02:38:20.946Z,67.94
2018-03-26T02:40:46.823Z,68.09
2018-03-26T02:43:14.563Z,67.99
2018-03-26T02:45:40.456Z,67.71
2018-03-26T02:48:10.171Z,67.79
2018-03-26T02:50:36.079Z,67.46
2018-03-26T02:53:05.581Z,67.74
2018-03-26T02:55:31.481Z,68.01
2018-03-26T02:57:58.767Z,68.54
2018-03-26T03:00:24.680Z,68.92
2018-03-26T03:02:54.182Z,68.39
2018-03-26T03:05:20.079Z,68.15
2018-03-26T03:07:48.213Z,68.53
2018-03-26T03:10:14.100Z,68.28
2018-03-26T03:12:40.010Z,68.43
2018-03-26T03:15:05.895Z,68.81
2018-03-26T03:17:31.776Z,68.32
2018-03-26T03:20:00.869Z,67.57
2018-03-26T03:22:26.757Z,67.92
2018-03-26T03:24:56.263Z,68.53
2018-03-26T03:27:22.123Z,69.30
2018-03-26T03:29:49.010Z,69.51
2018-03-26T03:32:14.931Z,68.74
2018-03-26T03:34:44.793Z,68.06
2018-03-26T03:37:10.691Z,68.39
2018-03-26T03:39:38.564Z,68.32
2018-03-26T03:42:04.514Z,68.14
2018-03-26T03:44:33.060Z,68.53
2018-03-26T03:46:58.976Z,68.73
2018-03-26T03:49:24.844Z,67.56
2018-03-26T03:51:50.715Z,68.02
2018-03-26T03:54:16.623Z,68.40
2018-03-26T03:56:45.898Z,68.87
2018-03-26T03:59:11.804Z,68.94
2018-03-26T04:01:41.314Z,68.51
2018-03-26T04:04:07.212Z,69.19
2018-03-26T04:06:34.671Z,68.94
2018-03-26T04:09:00.551Z,67.62
2018-03-26T04:11:30.096Z,67.85
2018-03-26T04:13:55.971Z,68.26
2018-03-26T04:16:25.459Z,67.56
2018-03-26T04:18:51.340Z,67.14
2018-03-26T04:21:18.976Z,67.04
2018-03-26T04:23:44.925Z,67.40
2018-03-26T04:26:10.836Z,67.46
2018-03-26T04:28:36.785Z,67.52
2018-03-26T04:31:02.684Z,67.19
2018-03-26T04:33:30.497Z,66.99
2018-03-26T04:35:56.554Z,66.90
2018-03-26T04:38:25.722Z,66.91
2018-03-26T04:40:51.621Z,66.92
2018-03-26T04:43:20.952Z,67.50
2018-03-26T04:45:46.847Z,67.70
2018-03-26T04:48:16.172Z,67.69
2018-03-26T04:50:42.082Z,67.85
2018-03-26T04:53:09.376Z,67.88
2018-03-26T04:55:35.294Z,68.33
2018-03-26T04:58:04.604Z,68.49
2018-03-26T05:00:30.570Z,68.38
2018-03-26T05:02:56.489Z,68.44
2018-03-26T05:05:22.392Z,68.13
2018-03-26T05:07:48.295Z,68.06
2018-03-26T05:10:15.513Z,68.32
2018-03-26T05:12:41.439Z,67.92
2018-03-26T05:15:10.892Z,67.54
2018-03-26T05:17:36.743Z,67.35
2018-03-26T05:20:06.070Z,67.31
2018-03-26T05:22:31.903Z,67.46
2018-03-26T05:25:01.278Z,67.78
2018-03-26T05:27:27.137Z,67.82
2018-03-26T05:29:54.425Z,68.08
2018-03-26T05:32:20.267Z,68.42
2018-03-26T05:34:49.258Z,68.55
2018-03-26T05:37:15.123Z,68.60
2018-03-26T05:39:40.997Z,68.56
2018-03-26T05:42:06.831Z,69.26
2018-03-26T05:44:32.713Z,69.60
2018-03-26T05:47:00.946Z,69.67
2018-03-26T05:49:26.807Z,69.60
2018-03-26T05:51:55.633Z,69.80
2018-03-26T05:54:21.473Z,70.03
2018-03-26T05:56:50.774Z,70.42
2018-03-26T05:59:16.643Z,70.40
2018-03-26T06:01:46.134Z,69.88
2018-03-26T06:04:11.976Z,70.07
2018-03-26T06:06:41.528Z,69.96
2018-03-26T06:09:07.395Z,70.07
2018-03-26T06:11:34.678Z,70.40
2018-03-26T06:14:00.522Z,70.41
2018-03-26T06:16:26.368Z,70.25
2018-03-26T06:18:52.267Z,70.79
2018-03-26T06:21:18.195Z,70.34
2018-03-26T06:23:46.594Z,70.51
2018-03-26T06:26:12.513Z,70.55
2018-03-26T06:28:41.819Z,70.86
2018-03-26T06:31:07.689Z,70.92
2018-03-26T06:33:36.645Z,70.18
2018-03-26T06:36:02.542Z,69.84
2018-03-26T06:38:37.063Z,69.84
2018-03-26T06:41:02.968Z,69.69
2018-03-26T06:43:28.845Z,69.69
2018-03-26T06:45:54.706Z,69.25
2018-03-26T06:48:20.546Z,68.86
2018-03-26T06:50:46.377Z,69.05
2018-03-26T06:53:12.269Z,68.54
2018-03-26T06:55:38.136Z,68.22
2018-03-26T06:58:04.005Z,68.10
2018-03-26T07:00:32.837Z,67.81
2018-03-26T07:02:58.685Z,67.99
2018-03-26T07:05:26.187Z,67.52
2018-03-26T07:07:52.022Z,67.88
2018-03-26T07:10:20.710Z,67.50
2018-03-26T07:12:46.575Z,67.20
2018-03-26T07:15:15.439Z,67.64
2018-03-26T07:17:41.289Z,66.94
2018-03-26T07:20:10.638Z,66.34
2018-03-26T07:22:36.542Z,66.43
2018-03-26T07:25:05.174Z,66.82
2018-03-26T07:27:31.028Z,66.21
2018-03-26T07:29:56.893Z,65.51
2018-03-26T07:32:22.758Z,65.41
2018-03-26T07:34:48.584Z,65.54
2018-03-26T07:37:17.593Z,65.08
2018-03-26T07:39:43.418Z,64.13
2018-03-26T07:42:13.029Z,64.52
2018-03-26T07:44:38.862Z,64.39
2018-03-26T07:47:06.205Z,64.67
2018-03-26T07:49:32.048Z,63.58
2018-03-26T07:52:00.813Z,63.75
2018-03-26T07:54:26.611Z,64.18
2018-03-26T07:56:55.547Z,64.01
2018-03-26T07:59:21.438Z,63.57
2018-03-26T08:01:50.026Z,63.36
2018-03-26T08:04:15.935Z,63.00
2018-03-26T08:06:41.786Z,62.80
2018-03-26T08:09:07.687Z,62.80
2018-03-26T08:11:33.561Z,62.71
2018-03-26T08:14:03.235Z,62.36
2018-03-26T08:16:29.098Z,62.63
2018-03-26T08:19:02.282Z,62.93
2018-03-26T08:21:28.129Z,62.64
2018-03-26T08:23:53.973Z,62.92
2018-03-26T08:26:19.874Z,62.41
2018-03-26T08:28:46.394Z,61.84
2018-03-26T08:31:12.257Z,62.51
2018-03-26T08:33:41.179Z,63.15
2018-03-26T08:36:07.048Z,62.68
2018-03-26T08:38:36.597Z,62.26
2018-03-26T08:41:02.429Z,62.10
2018-03-26T08:43:28.268Z,62.46
2018-03-26T08:45:54.199Z,63.08
2018-03-26T08:48:20.038Z,62.96
2018-03-26T08:50:47.801Z,62.33
2018-03-26T08:53:13.770Z,61.86
2018-03-26T08:55:42.832Z,61.56
2018-03-26T08:58:08.694Z,61.97
2018-03-26T09:00:38.456Z,61.93
2018-03-26T09:03:04.306Z,61.89
2018-03-26T09:05:31.490Z,61.09
2018-03-26T09:07:57.349Z,61.17
2018-03-26T09:10:26.165Z,61.45
2018-03-26T09:12:52.046Z,61.35
2018-03-26T09:15:21.454Z,60.77
2018-03-26T09:17:47.298Z,60.51
2018-03-26T09:20:13.167Z,59.75
2018-03-26T09:22:39.032Z,59.90
2018-03-26T09:25:04.907Z,59.09
2018-03-26T09:27:32.892Z,58.95
2018-03-26T09:29:58.726Z,58.51
2018-03-26T09:32:27.712Z,58.38
2018-03-26T09:34:53.603Z,58.07
2018-03-26T09:37:22.211Z,58.38
2018-03-26T09:39:48.095Z,59.02
2018-03-26T09:42:17.696Z,59.68
2018-03-26T09:44:43.582Z,58.87
2018-03-26T09:47:12.437Z,58.05
2018-03-26T09:49:38.326Z,57.17
2018-03-26T09:52:07.821Z,57.48
2018-03-26T09:54:33.677Z,57.22
2018-03-26T09:56:59.579Z,57.75
2018-03-26T09:59:25.425Z,57.43
2018-03-26T10:01:57.261Z,57.44
2018-03-26T10:04:26.055Z,57.42
2018-03-26T10:06:51.901Z,57.65
2018-03-26T10:09:17.758Z,56.83
2018-03-26T10:11:43.633Z,57.08
2018-03-26T10:14:09.522Z,57.25
2018-03-26T10:16:35.337Z,56.63
2018-03-26T10:19:02.684Z,57.27
2018-03-26T10:21:28.542Z,57.28
2018-03-26T10:23:58.350Z,57.56
2018-03-26T10:26:24.213Z,57.16
2018-03-26T10:28:51.520Z,56.76
2018-03-26T10:31:17.416Z,56.56
2018-03-26T10:33:43.424Z,55.71
2018-03-26T10:36:09.263Z,56.34
2018-03-26T10:38:35.111Z,55.47
2018-03-26T10:41:04.785Z,55.67
2018-03-26T10:43:30.629Z,55.60
2018-03-26T10:45:59.577Z,55.63
2018-03-26T10:48:25.430Z,55.20
2018-03-26T10:53:44.628Z,54.97
2018-03-26T10:56:10.495Z,54.31
2018-03-26T10:58:36.362Z,54.79
2018-03-26T11:01:02.252Z,54.43
2018-03-26T11:03:28.110Z,54.10
2018-03-26T11:05:53.957Z,53.65
2018-03-26T11:08:19.818Z,52.96
2018-03-26T11:10:45.722Z,53.12
2018-03-26T11:13:11.563Z,52.73
2018-03-26T11:15:37.416Z,53.17
2018-03-26T11:18:03.300Z,52.53
2018-03-26T11:20:29.165Z,51.78
2018-03-26T11:22:55.008Z,50.22
2018-03-26T11:25:20.856Z,49.85
2018-03-26T11:27:46.742Z,48.53
2018-03-26T11:30:12.602Z,48.61
2018-03-26T11:32:38.526Z,46.97
2018-03-26T11:35:04.418Z,44.97
2018-03-26T11:37:30.295Z,44.00
2018-03-26T11:39:56.146Z,42.96
2018-03-26T11:42:22.015Z,43.67
2018-03-26T11:44:47.889Z,43.57
2018-03-26T11:47:13.758Z,43.01
2018-03-26T11:49:39.655Z,42.84
2018-03-26T11:52:05.517Z,42.14
2018-03-26T11:54:34.646Z,43.17
2018-03-26T11:57:00.536Z,43.33
2018-03-26T11:59:29.646Z,42.69
2018-03-26T12:01:55.581Z,43.45
2018-03-26T12:04:23.187Z,42.98
2018-03-26T12:06:49.053Z,43.10
2018-03-26T12:09:17.901Z,43.25
2018-03-26T12:11:43.817Z,42.66
2018-03-26T12:14:12.625Z,43.21
2018-03-26T12:16:38.486Z,43.61
2018-03-26T12:19:08.282Z,43.95
2018-03-26T12:21:34.149Z,45.17
2018-03-26T12:24:12.334Z,44.47
2018-03-26T12:26:38.221Z,45.56
2018-03-26T12:29:16.530Z,45.62
2018-03-26T12:31:42.411Z,45.99
2018-03-26T12:37:08.184Z,47.28
2018-03-26T12:39:34.072Z,47.50
2018-03-26T12:41:59.921Z,48.00
2018-03-26T12:47:23.774Z,48.42
2018-03-26T12:49:49.645Z,48.34
2018-03-26T12:52:27.909Z,48.79
2018-03-26T12:54:53.769Z,49.65
2018-03-26T12:57:32.139Z,49.24
2018-03-26T12:59:58.027Z,50.02
2018-03-26T13:02:25.688Z,49.79
2018-03-26T13:04:51.554Z,49.45
2018-03-26T13:07:17.455Z,49.65
2018-03-26T13:09:43.326Z,49.10
2018-03-26T13:12:09.184Z,49.68
2018-03-26T13:14:35.316Z,49.86
2018-03-26T13:17:01.223Z,49.79
2018-03-26T13:19:27.068Z,50.63
2018-03-26T13:21:52.905Z,51.07
2018-03-26T13:24:18.845Z,51.07
2018-03-26T13:26:44.760Z,52.23
2018-03-26T13:29:10.651Z,52.80
2018-03-26T13:31:36.483Z,52.65
2018-03-26T13:34:02.378Z,52.64
2018-03-26T13:36:28.243Z,52.42
2018-03-26T13:38:54.117Z,53.06
2018-03-26T13:41:19.974Z,53.06
2018-03-26T13:43:45.844Z,52.92
2018-03-26T13:46:11.716Z,52.87
2018-03-26T13:48:37.584Z,53.10
2018-03-26T13:51:03.441Z,52.47
2018-03-26T13:53:29.347Z,52.58
2018-03-26T13:55:55.350Z,52.51
2018-03-26T13:58:21.222Z,52.34
2018-03-26T14:00:47.119Z,51.61
2018-03-26T14:03:13.018Z,51.85
2018-03-26T14:05:39.762Z,52.08
2018-03-26T14:08:05.647Z,52.80
2018-03-26T14:10:43.886Z,50.53
2018-03-26T14:13:22.104Z,49.98
2018-03-26T14:16:00.412Z,49.48
2018-03-26T14:18:26.340Z,49.73
2018-03-26T14:20:52.165Z,50.28
2018-03-26T14:23:18.010Z,50.43
2018-03-26T14:25:43.872Z,50.23
2018-03-26T14:28:09.734Z,50.75
2018-03-26T14:30:35.585Z,50.32
2018-03-26T14:33:01.458Z,49.52
2018-03-26T14:35:42.242Z,50.01
2018-03-26T14:38:08.155Z,50.72
2018-03-26T14:40:34.056Z,50.35
2018-03-26T14:42:59.927Z,50.11
2018-03-26T14:54:03.984Z,50.99
2018-03-26T14:56:29.805Z,51.42
2018-03-26T14:58:55.682Z,51.13
2018-03-26T15:01:21.542Z,51.69
2018-03-26T15:03:47.420Z,50.85
2018-03-26T15:06:13.335Z,51.74
2018-03-26T15:08:39.220Z,50.97
2018-03-26T15:11:05.044Z,51.08
2018-03-26T15:13:30.942Z,51.38
2018-03-26T15:15:56.799Z,51.56
2018-03-26T15:18:22.654Z,50.75
2018-03-26T15:20:48.550Z,51.04
2018-03-26T15:23:14.433Z,51.18
2018-03-26T15:25:40.332Z,50.95
2018-03-26T15:28:06.610Z,50.72
2018-03-26T15:30:32.537Z,51.22
2018-03-26T15:32:58.382Z,51.61
2018-03-26T15:35:24.252Z,51.44
2018-03-26T15:37:50.111Z,52.75
2018-03-26T15:40:16.009Z,53.16
2018-03-26T15:42:41.905Z,53.40
2018-03-26T15:45:07.778Z,53.49
2018-03-26T15:47:33.663Z,53.28
2018-03-26T15:49:59.546Z,52.52
2018-03-26T15:52:25.426Z,52.09
2018-03-26T15:54:51.266Z,52.40
2018-03-26T15:57:17.147Z,52.46
2018-03-26T15:59:43.066Z,52.67
2018-03-26T16:02:08.857Z,52.77
2018-03-26T16:04:34.745Z,52.83
2018-03-26T16:07:00.589Z,52.61
2018-03-26T16:09:26.469Z,53.06
2018-03-26T16:11:52.335Z,52.62
2018-03-26T16:14:18.233Z,53.74
2018-03-26T16:16:45.526Z,52.87
2018-03-26T16:19:11.412Z,52.30
2018-03-26T16:21:40.509Z,52.97
2018-03-26T16:24:06.390Z,51.94
2018-03-26T16:26:35.780Z,51.52
2018-03-26T16:29:01.660Z,50.75
2018-03-26T16:31:30.870Z,49.57
2018-03-26T16:33:56.788Z,49.04
2018-03-26T16:36:26.020Z,49.00
2018-03-26T16:38:51.912Z,49.38
2018-03-26T16:41:30.096Z,49.69
2018-03-26T16:43:56.022Z,50.78
2018-03-26T16:46:21.874Z,50.89
2018-03-26T16:48:47.770Z,50.85
2018-03-26T16:51:13.641Z,50.91
2018-03-26T16:53:39.484Z,51.12
2018-03-26T16:56:05.396Z,52.16
2018-03-26T16:58:31.245Z,52.54
2018-03-26T17:00:57.129Z,52.97
2018-03-26T17:03:22.966Z,52.97
2018-03-26T17:05:48.819Z,52.62
2018-03-26T17:08:15.016Z,52.97
2018-03-26T17:10:40.889Z,53.65
2018-03-26T17:13:09.662Z,53.59
2018-03-26T17:15:35.494Z,53.66
2018-03-26T17:18:01.368Z,54.14
2018-03-26T17:20:27.304Z,54.93
2018-03-26T17:22:53.178Z,55.50
2018-03-26T17:25:22.095Z,56.16
2018-03-26T17:27:47.944Z,56.67
2018-03-26T17:30:17.236Z,56.91
2018-03-26T17:32:43.124Z,57.20
2018-03-26T17:35:12.160Z,57.19
2018-03-26T17:37:37.995Z,56.87
2018-03-26T17:40:07.105Z,57.18
2018-03-26T17:42:32.947Z,56.95
2018-03-26T17:45:00.310Z,57.21
2018-03-26T17:47:26.167Z,57.44
2018-03-26T17:49:54.870Z,57.82
2018-03-26T17:52:20.718Z,57.83
2018-03-26T17:54:46.569Z,57.94
2018-03-26T17:57:12.453Z,57.83
2018-03-26T17:59:38.305Z,58.00
2018-03-26T18:02:06.925Z,57.89
2018-03-26T18:04:32.857Z,57.83
2018-03-26T18:07:01.409Z,57.80
2018-03-26T18:09:27.313Z,57.84
2018-03-26T18:11:56.186Z,57.95
2018-03-26T18:14:22.117Z,58.20
2018-03-26T18:16:50.916Z,58.38
2018-03-26T18:19:16.802Z,58.61
2018-03-26T18:21:45.521Z,59.10
2018-03-26T18:24:11.425Z,59.03
2018-03-26T18:26:40.174Z,59.17
2018-03-26T18:29:06.086Z,59.28
2018-03-26T18:31:32.000Z,59.62
2018-03-26T18:33:57.907Z,59.33
2018-03-26T18:36:23.832Z,59.25
2018-03-26T18:38:52.969Z,59.59
2018-03-26T18:41:18.869Z,59.54
2018-03-26T18:43:46.851Z,59.44
2018-03-26T18:46:12.760Z,59.15
2018-03-26T18:48:42.340Z,58.91
2018-03-26T18:51:08.293Z,59.06
2018-03-26T18:53:37.427Z,59.15
2018-03-26T18:56:03.318Z,59.48
2018-03-26T18:58:32.875Z,59.70
2018-03-26T19:00:58.797Z,60.00
2018-03-26T19:03:26.114Z,60.52
2018-03-26T19:05:52.023Z,60.42
2018-03-26T19:08:17.914Z,60.46
2018-03-26T19:10:43.805Z,60.29
2018-03-26T19:13:09.749Z,60.80
2018-03-26T19:15:37.286Z,60.80
2018-03-26T19:18:03.195Z,61.20
2018-03-26T19:20:32.922Z,61.38
2018-03-26T19:22:58.788Z,61.80
2018-03-26T19:25:28.151Z,61.57
2018-03-26T19:27:54.064Z,61.77
2018-03-26T19:30:23.176Z,61.76
2018-03-26T19:32:49.066Z,62.25
2018-03-26T19:35:16.425Z,62.24
2018-03-26T19:37:42.300Z,62.36
2018-03-26T19:40:11.570Z,62.86
2018-03-26T19:42:37.432Z,64.00
2018-03-26T19:45:03.346Z,63.95
2018-03-26T19:47:29.244Z,63.11
2018-03-26T19:49:55.131Z,64.48
2018-03-26T19:52:22.774Z,64.69
2018-03-26T19:54:48.650Z,64.41
2018-03-26T19:57:18.382Z,64.49
2018-03-26T19:59:44.298Z,64.60
2018-03-26T20:02:13.622Z,65.43
2018-03-26T20:04:39.732Z,66.34
2018-03-26T20:07:06.852Z,67.00
2018-03-26T20:09:32.719Z,67.20
2018-03-26T20:12:01.593Z,67.81
2018-03-26T20:14:27.538Z,69.07
2018-03-26T20:16:57.114Z,70.66
2018-03-26T20:19:23.079Z,71.19
2018-03-26T20:21:49.030Z,71.58
2018-03-26T20:24:14.931Z,72.49
2018-03-26T20:26:40.851Z,73.27
2018-03-26T20:29:08.203Z,74.75
2018-03-26T20:31:34.093Z,74.50
2018-03-26T20:34:03.344Z,75.47
2018-03-26T20:36:29.238Z,75.99
2018-03-26T20:38:58.436Z,77.21
2018-03-26T20:41:24.385Z,77.98
2018-03-26T20:43:53.784Z,79.11
2018-03-26T20:46:19.712Z,79.34
2018-03-26T20:48:48.868Z,79.66
2018-03-26T20:51:14.774Z,80.50
2018-03-26T20:53:41.801Z,81.16
2018-03-26T20:56:09.382Z,81.66
2018-03-26T20:58:35.281Z,81.15
2018-03-26T21:01:01.173Z,80.95
2018-03-26T21:03:27.037Z,81.82
2018-03-26T21:05:54.004Z,82.49
2018-03-26T21:08:19.899Z,82.15
2018-03-26T21:10:48.995Z,81.61
2018-03-26T21:13:16.817Z,81.33
2018-03-26T21:15:42.766Z,80.78
2018-03-26T21:18:08.690Z,80.79
2018-03-26T21:20:38.516Z,81.32
2018-03-26T21:23:04.442Z,81.61
2018-03-26T21:25:33.822Z,81.43
2018-03-26T21:27:59.716Z,81.50
2018-03-26T21:30:26.799Z,81.56
2018-03-26T21:32:52.760Z,81.91
2018-03-26T21:35:18.652Z,81.60
2018-03-26T21:37:44.574Z,82.04
2018-03-26T21:40:10.510Z,82.07
2018-03-26T21:42:39.789Z,82.25
2018-03-26T21:45:05.745Z,82.90
2018-03-26T21:47:34.962Z,83.44
2018-03-26T21:50:00.907Z,82.96
2018-03-26T21:52:28.067Z,82.45
2018-03-26T21:54:53.972Z,82.01
2018-03-26T21:57:23.035Z,81.95
2018-03-26T21:59:48.919Z,82.19
2018-03-26T22:02:18.241Z,81.91
2018-03-26T22:04:44.184Z,81.51
2018-03-26T22:07:12.383Z,81.52
2018-03-26T22:09:38.295Z,81.79
2018-03-26T22:12:04.228Z,81.68
2018-03-26T22:14:30.157Z,82.22
2018-03-26T22:16:56.102Z,83.54
2018-03-26T22:19:25.514Z,84.64
2018-03-26T22:21:51.382Z,85.51
2018-03-26T22:24:18.755Z,86.12
2018-03-26T22:26:44.618Z,86.46
2018-03-26T22:29:14.223Z,86.46
2018-03-26T22:31:40.117Z,86.54
2018-03-26T22:34:09.682Z,86.04
2018-03-26T22:36:35.590Z,86.14
2018-03-26T22:39:02.920Z,86.34
2018-03-26T22:41:28.822Z,85.94
2018-03-26T22:43:58.029Z,85.18
2018-03-26T22:46:23.940Z,85.20
2018-03-26T22:48:49.815Z,85.08
2018-03-26T22:51:15.710Z,85.08
2018-03-26T22:53:41.644Z,85.45
2018-03-26T22:56:09.130Z,85.66
2018-03-26T22:58:35.137Z,85.83
2018-03-26T23:01:04.484Z,85.55
2018-03-26T23:03:30.364Z,84.96
2018-03-26T23:05:59.726Z,84.67
2018-03-26T23:08:25.635Z,84.06
2018-03-26T23:10:55.045Z,83.73
2018-03-26T23:13:20.932Z,83.85
2018-03-26T23:15:48.164Z,84.19
2018-03-26T23:18:14.049Z,83.94
2018-03-26T23:20:43.574Z,83.69
2018-03-26T23:23:09.493Z,83.48
2018-03-26T23:25:35.410Z,82.85
2018-03-26T23:28:01.288Z,82.38
2018-03-26T23:30:27.189Z,82.12
2018-03-26T23:32:54.606Z,82.15
2018-03-26T23:35:20.514Z,82.52
2018-03-26T23:37:49.980Z,82.80
2018-03-26T23:40:15.866Z,82.49
2018-03-26T23:42:44.037Z,82.01
2018-03-26T23:45:09.943Z,81.35
2018-03-26T23:47:39.370Z,81.24
2018-03-26T23:50:05.263Z,80.98
2018-03-26T23:52:33.277Z,80.92
2018-03-26T23:54:59.206Z,81.14
2018-03-26T23:57:27.915Z,81.75
2018-03-26T23:59:53.853Z,81.61
